createdAt,value
2019-06-07T00:01:39.888Z,78.50
2019-06-07T00:04:09.898Z,78.70
2019-06-07T00:06:36.385Z,78.90
2019-06-07T00:09:08.177Z,79.30
2019-06-07T00:11:34.381Z,79.50
2019-06-07T00:14:01.785Z,79.50
2019-06-07T00:16:29.232Z,79.40
2019-06-07T00:18:56.857Z,79.50
2019-06-07T00:22:12.172Z,79.40
2019-06-07T00:23:53.415Z,79.40
2019-06-07T00:26:21.414Z,79.80
2019-06-07T00:28:48.864Z,79.90
2019-06-07T00:31:18.194Z,80.40
2019-06-07T00:33:45.538Z,80.60
2019-06-07T00:36:14.714Z,80.20
2019-06-07T00:38:42.137Z,80.00
2019-06-07T00:41:10.037Z,79.70
2019-06-07T00:43:37.462Z,79.40
2019-06-07T00:46:04.752Z,79.10
2019-06-07T00:48:33.154Z,79.20
2019-06-07T00:51:00.709Z,79.30
2019-06-07T00:53:32.180Z,79.80
2019-06-07T00:55:57.229Z,80.20
2019-06-07T00:58:27.867Z,80.40
2019-06-07T01:00:53.777Z,80.10
2019-06-07T01:03:25.212Z,80.00
2019-06-07T01:05:50.400Z,79.90
2019-06-07T01:08:20.015Z,79.80
2019-06-07T01:10:53.637Z,79.40
2019-06-07T01:13:17.212Z,79.40
2019-06-07T01:15:45.383Z,79.50
2019-06-07T01:18:36.043Z,79.60
2019-06-07T01:20:41.970Z,79.30
2019-06-07T01:23:51.883Z,79.30
2019-06-07T01:25:38.943Z,79.00
2019-06-07T01:28:06.629Z,79.20
2019-06-07T01:30:33.961Z,79.10
2019-06-07T01:33:01.261Z,79.10
2019-06-07T01:35:29.997Z,79.50
2019-06-07T01:37:57.677Z,79.50
2019-06-07T01:40:31.873Z,79.60
2019-06-07T01:42:54.214Z,79.30
2019-06-07T01:45:23.475Z,78.80
2019-06-07T01:47:51.436Z,79.30
2019-06-07T01:50:22.560Z,79.70
2019-06-07T01:52:48.187Z,79.70
2019-06-07T01:55:15.823Z,79.20
2019-06-07T01:57:48.083Z,79.00
2019-06-07T02:00:14.469Z,79.00
2019-06-07T02:02:42.096Z,78.80
2019-06-07T02:05:09.705Z,78.50
2019-06-07T02:07:37.027Z,78.40
2019-06-07T02:10:05.163Z,78.30
2019-06-07T02:12:42.503Z,78.10
2019-06-07T02:15:01.865Z,78.40
2019-06-07T02:17:30.909Z,78.50
2019-06-07T02:19:58.701Z,78.50
2019-06-07T02:22:29.483Z,78.60
2019-06-07T02:25:34.597Z,78.70
2019-06-07T02:27:25.667Z,78.80
2019-06-07T02:29:53.535Z,78.60
2019-06-07T02:32:21.713Z,78.50
2019-06-07T02:34:50.088Z,78.40
2019-06-07T02:37:17.458Z,78.20
2019-06-07T02:39:44.769Z,78.90
2019-06-07T02:42:12.206Z,78.60
2019-06-07T02:44:40.439Z,78.20
2019-06-07T02:47:08.323Z,77.90
2019-06-07T02:49:41.151Z,78.20
2019-06-07T02:52:04.923Z,78.40
2019-06-07T02:54:36.892Z,78.50
2019-06-07T02:57:01.562Z,78.70
2019-06-07T02:59:56.706Z,78.80
2019-06-07T03:01:58.067Z,78.60
2019-06-07T03:04:29.513Z,78.20
2019-06-07T03:06:57.829Z,78.00
2019-06-07T03:09:26.299Z,78.50
2019-06-07T03:11:56.108Z,78.80
2019-06-07T03:14:25.996Z,78.60
2019-06-07T03:17:01.726Z,78.20
2019-06-07T03:19:37.769Z,78.40
2019-06-07T03:22:04.757Z,78.30
2019-06-07T03:24:36.230Z,78.50
2019-06-07T03:27:34.160Z,79.00
2019-06-07T03:29:34.517Z,79.20
2019-06-07T03:32:02.771Z,79.00
2019-06-07T03:34:38.167Z,79.10
2019-06-07T03:36:59.346Z,79.20
2019-06-07T03:39:28.407Z,79.40
2019-06-07T03:42:06.504Z,79.50
2019-06-07T03:44:27.867Z,79.30
2019-06-07T03:46:54.685Z,79.80
2019-06-07T03:49:21.974Z,80.10
2019-06-07T03:51:49.318Z,80.30
2019-06-07T03:54:16.748Z,80.90
2019-06-07T03:56:44.102Z,81.10
2019-06-07T03:59:12.170Z,81.00
2019-06-07T04:01:41.172Z,81.20
2019-06-07T04:04:09.035Z,80.60
2019-06-07T04:06:38.532Z,80.90
2019-06-07T04:09:06.373Z,80.80
2019-06-07T04:11:35.139Z,81.00
2019-06-07T04:14:02.897Z,80.70
2019-06-07T04:16:35.021Z,80.50
2019-06-07T04:18:59.801Z,80.90
2019-06-07T04:21:29.661Z,81.10
2019-06-07T04:23:56.433Z,81.30
2019-06-07T04:26:23.715Z,81.30
2019-06-07T04:31:20.310Z,81.80
2019-06-07T04:33:48.587Z,81.60
2019-06-07T04:36:16.205Z,82.00
2019-06-07T04:38:44.303Z,81.90
2019-06-07T04:41:12.922Z,82.00
2019-06-07T04:43:42.879Z,81.50
2019-06-07T04:46:11.637Z,80.70
2019-06-07T04:48:43.279Z,81.00
2019-06-07T04:51:11.675Z,80.00
2019-06-07T04:53:43.065Z,78.60
2019-06-07T04:56:08.433Z,78.50
2019-06-07T04:58:37.834Z,79.70
2019-06-07T05:01:05.454Z,79.20
2019-06-07T05:03:36.111Z,78.60
2019-06-07T05:06:02.150Z,78.90
2019-06-07T05:08:31.451Z,80.10
2019-06-07T05:10:59.308Z,80.00
2019-06-07T05:13:26.646Z,79.40
2019-06-07T05:15:54.015Z,78.90
2019-06-07T05:18:21.658Z,78.70
2019-06-07T05:20:49.340Z,77.90
2019-06-07T05:23:59.437Z,78.20
2019-06-07T05:25:46.492Z,77.20
2019-06-07T05:28:13.945Z,77.90
2019-06-07T05:33:10.798Z,78.60
2019-06-07T05:35:41.825Z,78.60
2019-06-07T05:38:08.242Z,79.20
2019-06-07T05:40:40.125Z,79.20
2019-06-07T05:43:09.026Z,78.70
2019-06-07T05:45:39.266Z,78.50
2019-06-07T05:48:07.426Z,78.50
2019-06-07T05:50:44.960Z,78.80
2019-06-07T05:53:05.170Z,78.20
2019-06-07T05:55:32.738Z,77.10
2019-06-07T05:58:00.322Z,76.70
2019-06-07T06:00:27.907Z,76.60
2019-06-07T06:03:04.651Z,76.40
2019-06-07T06:05:34.440Z,76.60
2019-06-07T06:07:53.761Z,77.00
2019-06-07T06:10:21.264Z,77.50
2019-06-07T06:12:51.888Z,77.80
2019-06-07T06:15:18.941Z,77.20
2019-06-07T06:17:52.882Z,77.10
2019-06-07T06:20:16.336Z,77.10
2019-06-07T06:22:48.113Z,77.20
2019-06-07T06:28:05.959Z,76.50
2019-06-07T06:30:12.247Z,76.30
2019-06-07T06:32:42.953Z,76.50
2019-06-07T06:35:09.662Z,76.40
2019-06-07T06:37:40.368Z,75.60
2019-06-07T06:40:07.620Z,75.40
2019-06-07T06:42:35.062Z,74.40
2019-06-07T06:45:02.870Z,74.10
2019-06-07T06:47:30.317Z,74.20
2019-06-07T06:49:57.770Z,74.10
2019-06-07T06:52:25.085Z,72.50
2019-06-07T06:55:00.215Z,73.60
2019-06-07T06:57:21.686Z,72.80
2019-06-07T06:59:51.104Z,72.10
2019-06-07T07:02:18.436Z,71.30
2019-06-07T07:04:47.958Z,71.30
2019-06-07T07:07:15.606Z,71.40
2019-06-07T07:09:47.147Z,72.50
2019-06-07T07:12:14.820Z,72.80
2019-06-07T07:14:42.993Z,72.00
2019-06-07T07:17:10.759Z,72.10
2019-06-07T07:19:38.197Z,73.20
2019-06-07T07:22:05.547Z,73.00
2019-06-07T07:24:32.818Z,73.00
2019-06-07T07:27:00.556Z,73.60
2019-06-07T07:29:27.934Z,73.00
2019-06-07T07:31:56.542Z,71.70
2019-06-07T07:34:36.002Z,72.00
2019-06-07T07:36:59.638Z,72.70
2019-06-07T07:39:25.659Z,73.70
2019-06-07T07:42:13.782Z,73.80
2019-06-07T07:44:22.213Z,72.10
2019-06-07T07:46:52.774Z,72.40
2019-06-07T07:49:18.934Z,72.30
2019-06-07T07:51:46.492Z,71.50
2019-06-07T07:54:14.057Z,73.00
2019-06-07T07:56:41.814Z,72.60
2019-06-07T07:59:09.288Z,72.00
2019-06-07T08:01:37.153Z,71.60
2019-06-07T08:04:04.599Z,70.70
2019-06-07T08:06:31.885Z,71.10
2019-06-07T08:08:59.263Z,70.00
2019-06-07T08:11:26.707Z,69.40
2019-06-07T08:13:57.290Z,71.30
2019-06-07T08:16:23.274Z,71.20
2019-06-07T08:18:53.308Z,70.00
2019-06-07T08:21:25.535Z,69.60
2019-06-07T08:23:51.546Z,70.40
2019-06-07T08:26:18.767Z,71.10
2019-06-07T08:28:48.233Z,70.40
2019-06-07T08:31:15.386Z,70.40
2019-06-07T08:33:42.714Z,71.00
2019-06-07T08:36:20.011Z,69.80
2019-06-07T08:38:48.085Z,69.20
2019-06-07T08:41:11.758Z,68.90
2019-06-07T08:43:37.800Z,69.20
2019-06-07T08:46:07.613Z,70.00
2019-06-07T08:48:34.430Z,70.00
2019-06-07T08:51:08.177Z,69.30
2019-06-07T08:53:31.002Z,68.80
2019-06-07T08:56:06.018Z,69.50
2019-06-07T08:58:27.981Z,69.10
2019-06-07T09:00:58.451Z,69.40
2019-06-07T09:03:24.528Z,68.30
2019-06-07T09:05:53.582Z,66.70
2019-06-07T09:08:30.050Z,66.70
2019-06-07T09:10:50.318Z,66.80
2019-06-07T09:13:17.633Z,66.90
2019-06-07T09:15:45.295Z,67.40
2019-06-07T09:20:44.420Z,67.60
2019-06-07T09:23:17.012Z,67.80
2019-06-07T09:25:56.648Z,66.60
2019-06-07T09:28:19.167Z,65.60
2019-06-07T09:30:42.495Z,65.60
2019-06-07T09:33:10.761Z,65.20
2019-06-07T09:35:38.793Z,65.00
2019-06-07T09:38:18.154Z,66.50
2019-06-07T09:40:35.514Z,64.30
2019-06-07T09:43:59.035Z,64.30
2019-06-07T09:45:32.812Z,64.80
2019-06-07T09:48:04.439Z,65.10
2019-06-07T09:50:29.386Z,64.80
2019-06-07T09:53:02.809Z,65.30
2019-06-07T09:55:26.456Z,63.40
2019-06-07T09:57:53.846Z,63.10
2019-06-07T10:00:39.641Z,64.30
2019-06-07T10:02:50.982Z,64.90
2019-06-07T10:05:18.614Z,62.50
2019-06-07T10:08:02.504Z,62.10
2019-06-07T10:12:45.251Z,61.90
2019-06-07T10:15:12.566Z,61.50
2019-06-07T10:17:40.384Z,61.10
2019-06-07T10:20:09.737Z,61.40
2019-06-07T10:22:37.785Z,61.70
2019-06-07T10:25:06.413Z,60.00
2019-06-07T10:27:33.883Z,60.70
2019-06-07T10:30:02.318Z,61.10
2019-06-07T10:32:29.919Z,59.90
2019-06-07T10:34:57.349Z,58.70
2019-06-07T10:37:24.713Z,59.00
2019-06-07T10:39:52.316Z,59.00
2019-06-07T10:42:19.702Z,58.60
2019-06-07T10:44:47.074Z,59.80
2019-06-07T10:47:14.513Z,58.10
2019-06-07T10:49:42.049Z,57.40
2019-06-07T10:52:10.399Z,58.10
2019-06-07T10:54:38.704Z,58.00
2019-06-07T10:57:09.332Z,57.60
2019-06-07T10:59:54.841Z,56.00
2019-06-07T11:02:22.271Z,56.20
2019-06-07T11:04:50.160Z,55.80
2019-06-07T11:07:18.666Z,55.20
2019-06-07T11:09:46.738Z,54.00
2019-06-07T11:12:15.510Z,54.50
2019-06-07T11:14:42.963Z,55.00
2019-06-07T11:17:11.317Z,54.50
2019-06-07T11:19:38.778Z,54.00
2019-06-07T11:22:10.107Z,53.60
2019-06-07T11:24:37.828Z,53.10
2019-06-07T11:27:07.190Z,52.50
2019-06-07T11:29:37.515Z,52.40
2019-06-07T11:32:06.245Z,52.00
2019-06-07T11:34:33.907Z,51.50
2019-06-07T11:37:01.711Z,51.90
2019-06-07T11:39:29.477Z,50.90
2019-06-07T11:41:57.072Z,50.90
2019-06-07T11:44:25.331Z,48.10
2019-06-07T11:46:52.792Z,45.60
2019-06-07T11:49:21.958Z,43.70
2019-06-07T11:51:48.989Z,42.80
2019-06-07T11:54:20.102Z,40.10
2019-06-07T11:56:45.918Z,36.00
2019-06-07T11:59:15.975Z,33.00
2019-06-07T12:01:43.674Z,30.80
2019-06-07T12:04:11.535Z,29.40
2019-06-07T12:06:39.457Z,27.80
2019-06-07T12:09:08.434Z,26.10
2019-06-07T12:11:36.241Z,25.00
2019-06-07T12:14:04.051Z,24.10
2019-06-07T12:16:32.783Z,23.60
2019-06-07T12:19:00.806Z,22.90
2019-06-07T12:21:28.436Z,22.00
2019-06-07T12:23:55.982Z,20.90
2019-06-07T12:26:23.487Z,20.30
2019-06-07T12:28:51.133Z,20.70
2019-06-07T12:31:19.313Z,20.80
2019-06-07T12:33:46.981Z,20.00
2019-06-07T12:36:15.787Z,20.00
2019-06-07T12:38:43.565Z,19.30
2019-06-07T12:41:12.014Z,19.90
2019-06-07T12:43:39.635Z,19.70
2019-06-07T12:46:07.287Z,19.50
2019-06-07T12:48:34.610Z,18.70
2019-06-07T12:51:02.028Z,18.40
2019-06-07T12:53:29.359Z,18.60
2019-06-07T12:56:00.009Z,18.90
2019-06-07T12:58:34.696Z,18.60
2019-06-07T13:00:59.389Z,18.40
2019-06-07T13:03:26.863Z,17.80
2019-06-07T13:05:54.472Z,18.00
2019-06-07T13:08:22.117Z,17.60
2019-06-07T13:10:50.147Z,17.80
2019-06-07T13:13:18.567Z,18.40
2019-06-07T13:15:47.803Z,18.30
2019-06-07T13:18:16.966Z,18.20
2019-06-07T13:20:44.750Z,17.60
2019-06-07T13:23:12.227Z,17.80
2019-06-07T13:25:45.939Z,17.10
2019-06-07T13:28:08.960Z,17.40
2019-06-07T13:30:36.641Z,18.60
2019-06-07T13:33:04.169Z,19.20
2019-06-07T13:35:31.629Z,19.30
2019-06-07T13:37:59.831Z,19.70
2019-06-07T13:40:28.668Z,19.30
2019-06-07T13:42:56.340Z,19.00
2019-06-07T13:45:24.336Z,18.80
2019-06-07T13:47:52.086Z,18.70
2019-06-07T13:50:21.684Z,19.20
2019-06-07T13:52:49.402Z,18.80
2019-06-07T13:55:17.857Z,19.40
2019-06-07T13:57:45.578Z,19.40
2019-06-07T14:00:13.421Z,20.00
2019-06-07T14:02:40.937Z,20.50
2019-06-07T14:05:08.880Z,21.80
2019-06-07T14:07:36.349Z,22.70
2019-06-07T14:10:04.747Z,23.90
2019-06-07T14:12:33.145Z,23.80
2019-06-07T14:15:00.909Z,24.10
2019-06-07T14:17:30.312Z,24.20
2019-06-07T14:19:57.963Z,25.30
2019-06-07T14:22:26.768Z,24.90
2019-06-07T14:24:54.573Z,24.80
2019-06-07T14:27:23.335Z,24.50
2019-06-07T14:29:51.174Z,24.10
2019-06-07T14:32:18.656Z,24.10
2019-06-07T14:34:46.110Z,23.30
2019-06-07T14:37:13.689Z,22.50
2019-06-07T14:39:41.483Z,22.20
2019-06-07T14:42:10.395Z,21.80
2019-06-07T14:44:38.055Z,22.70
2019-06-07T14:47:05.448Z,23.30
2019-06-07T14:49:34.595Z,23.80
2019-06-07T14:52:02.583Z,23.60
2019-06-07T14:54:32.296Z,23.20
2019-06-07T14:57:02.902Z,23.00
2019-06-07T14:59:30.082Z,22.10
2019-06-07T15:01:58.191Z,20.80
2019-06-07T15:04:26.430Z,20.70
2019-06-07T15:06:54.008Z,20.10
2019-06-07T15:09:21.422Z,19.60
2019-06-07T15:11:48.773Z,20.40
2019-06-07T15:14:16.985Z,20.70
2019-06-07T15:16:44.656Z,21.20
2019-06-07T15:19:12.770Z,20.90
2019-06-07T15:21:40.114Z,21.10
2019-06-07T15:24:07.581Z,20.60
2019-06-07T15:26:34.962Z,19.90
2019-06-07T15:29:03.854Z,19.30
2019-06-07T15:31:32.078Z,19.20
2019-06-07T15:34:00.062Z,19.50
2019-06-07T15:36:28.256Z,19.70
2019-06-07T15:38:55.833Z,20.60
2019-06-07T15:41:23.184Z,21.50
2019-06-07T15:43:50.555Z,22.80
2019-06-07T15:46:17.869Z,24.70
2019-06-07T15:48:45.361Z,26.80
2019-06-07T15:51:12.784Z,28.60
2019-06-07T15:53:44.396Z,30.00
2019-06-07T15:56:09.512Z,30.90
2019-06-07T15:58:37.241Z,31.90
2019-06-07T16:01:04.727Z,33.70
2019-06-07T16:03:33.609Z,33.90
2019-06-07T16:06:01.232Z,34.10
2019-06-07T16:08:28.611Z,37.10
2019-06-07T16:10:55.959Z,36.20
2019-06-07T16:13:23.587Z,36.10
2019-06-07T16:15:51.086Z,37.00
2019-06-07T16:18:18.403Z,37.40
2019-06-07T16:20:45.888Z,38.00
2019-06-07T16:23:13.272Z,37.60
2019-06-07T16:25:42.051Z,38.30
2019-06-07T16:28:09.973Z,40.30
2019-06-07T16:30:38.413Z,39.40
2019-06-07T16:33:05.998Z,39.00
2019-06-07T16:35:33.355Z,39.20
2019-06-07T16:38:00.747Z,40.20
2019-06-07T16:40:28.502Z,40.10
2019-06-07T16:42:55.983Z,40.70
2019-06-07T16:45:23.576Z,40.80
2019-06-07T16:47:51.035Z,41.00
2019-06-07T16:50:18.744Z,41.10
2019-06-07T16:52:46.553Z,40.70
2019-06-07T16:55:15.604Z,41.90
2019-06-07T16:57:43.060Z,42.30
2019-06-07T17:00:11.100Z,41.70
2019-06-07T17:02:40.180Z,42.30
2019-06-07T17:05:08.998Z,42.50
2019-06-07T17:07:38.349Z,43.00
2019-06-07T17:10:07.883Z,44.10
2019-06-07T17:12:35.665Z,43.50
2019-06-07T17:15:04.200Z,42.80
2019-06-07T17:17:31.724Z,43.10
2019-06-07T17:19:59.165Z,43.40
2019-06-07T17:22:26.846Z,44.90
2019-06-07T17:24:54.190Z,45.00
2019-06-07T17:27:21.647Z,44.50
2019-06-07T17:29:50.086Z,45.80
2019-06-07T17:32:17.883Z,46.70
2019-06-07T17:34:46.186Z,45.30
2019-06-07T17:37:13.707Z,47.10
2019-06-07T17:39:43.387Z,47.00
2019-06-07T17:42:10.797Z,45.70
2019-06-07T17:44:38.647Z,46.30
2019-06-07T17:47:06.172Z,46.60
2019-06-07T17:49:33.725Z,48.20
2019-06-07T17:52:01.367Z,48.10
2019-06-07T17:54:28.828Z,47.70
2019-06-07T17:56:56.252Z,47.60
2019-06-07T17:59:24.124Z,48.40
2019-06-07T18:02:12.286Z,48.80
2019-06-07T18:04:20.853Z,48.60
2019-06-07T18:06:51.475Z,48.00
2019-06-07T18:09:21.670Z,48.80
2019-06-07T18:11:49.996Z,48.50
2019-06-07T18:14:17.648Z,49.60
2019-06-07T18:16:46.433Z,49.00
2019-06-07T18:19:14.112Z,49.60
2019-06-07T18:21:41.602Z,50.40
2019-06-07T18:24:09.092Z,50.50
2019-06-07T18:26:36.681Z,51.00
2019-06-07T18:29:04.376Z,51.70
2019-06-07T18:31:31.899Z,53.70
2019-06-07T18:33:59.409Z,53.90
2019-06-07T18:36:26.926Z,50.40
2019-06-07T18:38:55.111Z,50.70
2019-06-07T18:41:22.794Z,51.20
2019-06-07T18:43:51.116Z,51.60
2019-06-07T18:46:21.253Z,52.40
2019-06-07T18:48:50.506Z,51.60
2019-06-07T18:51:18.798Z,51.80
2019-06-07T18:53:47.556Z,51.90
2019-06-07T18:56:15.547Z,51.70
2019-06-07T18:58:43.005Z,52.10
2019-06-07T19:01:10.649Z,52.30
2019-06-07T19:03:38.343Z,53.30
2019-06-07T19:06:06.870Z,54.20
2019-06-07T19:08:34.724Z,54.90
2019-06-07T19:11:02.975Z,55.10
2019-06-07T19:13:31.915Z,55.30
2019-06-07T19:15:59.723Z,55.00
2019-06-07T19:18:28.387Z,55.10
2019-06-07T19:20:56.507Z,55.30
2019-06-07T19:23:24.545Z,55.30
2019-06-07T19:25:52.241Z,55.60
2019-06-07T19:28:19.827Z,56.30
2019-06-07T19:30:47.708Z,56.90
2019-06-07T19:33:15.920Z,56.80
2019-06-07T19:35:43.474Z,57.30
2019-06-07T19:38:11.854Z,57.50
2019-06-07T19:40:39.651Z,57.60
2019-06-07T19:43:07.254Z,57.90
2019-06-07T19:45:34.867Z,57.80
2019-06-07T19:48:02.891Z,57.80
2019-06-07T19:50:31.486Z,57.90
2019-06-07T19:52:59.484Z,57.90
2019-06-07T19:55:27.219Z,57.90
2019-06-07T19:57:55.535Z,58.00
2019-06-07T20:00:24.451Z,57.60
2019-06-07T20:02:53.679Z,57.40
2019-06-07T20:05:21.799Z,57.30
2019-06-07T20:07:49.803Z,57.60
2019-06-07T20:10:19.748Z,57.20
2019-06-07T20:13:06.832Z,57.80
2019-06-07T20:15:35.022Z,57.30
2019-06-07T20:18:03.331Z,57.10
2019-06-07T20:20:31.188Z,57.50
2019-06-07T20:22:59.182Z,56.20
2019-06-07T20:25:27.029Z,56.70
2019-06-07T20:27:54.871Z,56.40
2019-06-07T20:30:23.089Z,55.70
2019-06-07T20:32:51.114Z,55.00
2019-06-07T20:35:18.971Z,55.30
2019-06-07T20:37:46.477Z,55.20
2019-06-07T20:40:23.392Z,55.20
2019-06-07T20:42:43.789Z,55.40
2019-06-07T20:45:11.520Z,55.10
2019-06-07T20:47:39.363Z,55.50
2019-06-07T20:50:08.914Z,55.30
2019-06-07T20:52:36.674Z,55.50
2019-06-07T20:55:06.884Z,55.50
2019-06-07T20:57:34.467Z,55.60
2019-06-07T21:00:10.560Z,55.80
2019-06-07T21:02:31.583Z,56.30
2019-06-07T21:04:59.448Z,56.30
2019-06-07T21:07:26.985Z,56.10
2019-06-07T21:09:54.835Z,56.90
2019-06-07T21:12:22.382Z,56.50
2019-06-07T21:14:50.714Z,56.80
2019-06-07T21:17:18.203Z,56.80
2019-06-07T21:19:45.564Z,57.00
2019-06-07T21:22:13.011Z,56.30
2019-06-07T21:24:40.487Z,56.60
2019-06-07T21:27:09.352Z,56.60
2019-06-07T21:29:36.901Z,56.30
2019-06-07T21:32:05.442Z,56.30
2019-06-07T21:34:32.883Z,56.70
2019-06-07T21:37:01.655Z,56.30
2019-06-07T21:39:29.159Z,56.80
2019-06-07T21:41:56.624Z,56.50
2019-06-07T21:44:24.077Z,56.90
2019-06-07T21:46:51.484Z,57.00
2019-06-07T21:49:18.913Z,57.50
2019-06-07T21:51:46.375Z,57.30
2019-06-07T21:54:14.877Z,57.70
2019-06-07T21:56:42.643Z,57.50
2019-06-07T21:59:11.136Z,57.80
2019-06-07T22:01:39.016Z,57.80
2019-06-07T22:04:07.472Z,57.60
2019-06-07T22:06:35.099Z,57.30
2019-06-07T22:09:05.602Z,56.90
2019-06-07T22:11:33.474Z,56.70
2019-06-07T22:14:00.976Z,57.00
2019-06-07T22:16:29.572Z,56.70
2019-06-07T22:18:57.340Z,56.20
2019-06-07T22:21:24.852Z,56.20
2019-06-07T22:23:52.183Z,56.90
2019-06-07T22:26:19.715Z,56.90
2019-06-07T22:28:47.517Z,56.80
2019-06-07T22:31:15.050Z,56.60
2019-06-07T22:33:42.600Z,56.50
2019-06-07T22:36:11.039Z,56.50
2019-06-07T22:38:38.503Z,56.50
2019-06-07T22:41:07.208Z,56.80
2019-06-07T22:43:34.669Z,56.70
2019-06-07T22:46:02.142Z,56.10
2019-06-07T22:48:29.562Z,56.90
2019-06-07T22:50:58.872Z,57.20
2019-06-07T22:53:26.233Z,57.10
2019-06-07T22:56:02.376Z,56.30
2019-06-07T22:58:29.780Z,56.60
2019-06-07T23:00:57.432Z,56.20
2019-06-07T23:03:24.883Z,56.00
2019-06-07T23:05:52.234Z,56.70
2019-06-07T23:08:19.669Z,57.10
2019-06-07T23:10:47.021Z,56.40
2019-06-07T23:13:15.498Z,56.80
2019-06-07T23:15:43.095Z,57.10
2019-06-07T23:18:11.395Z,57.20
2019-06-07T23:20:38.896Z,56.80
2019-06-07T23:23:06.298Z,56.60
2019-06-07T23:25:33.634Z,56.70
2019-06-07T23:28:01.035Z,56.50
2019-06-07T23:30:28.342Z,56.70
2019-06-07T23:32:55.678Z,56.10
2019-06-07T23:35:23.015Z,56.20
2019-06-07T23:37:50.472Z,56.40
2019-06-07T23:40:19.314Z,56.10
2019-06-07T23:42:46.959Z,56.20
2019-06-07T23:45:15.494Z,56.50
2019-06-07T23:47:43.156Z,56.40
2019-06-07T23:50:11.473Z,56.40
2019-06-07T23:52:38.926Z,56.40
2019-06-07T23:55:06.747Z,56.50
2019-06-07T23:57:34.253Z,56.70
